createdAt,value
2023-04-30T00:00:23.831Z,8.77
2023-04-30T00:03:13.798Z,8.68
2023-04-30T00:06:01.041Z,8.25
2023-04-30T00:08:48.275Z,8.38
2023-04-30T00:11:35.474Z,8.65
2023-04-30T00:14:24.912Z,8.02
2023-04-30T00:17:12.075Z,8.45
2023-04-30T00:20:01.588Z,7.82
2023-04-30T00:22:51.049Z,8.48
2023-04-30T00:25:38.165Z,7.97
2023-04-30T00:28:25.281Z,8.68
2023-04-30T00:31:12.459Z,8.27
2023-04-30T00:33:59.708Z,8.45
2023-04-30T00:36:49.058Z,8.25
2023-04-30T00:39:36.186Z,8.45
2023-04-30T00:42:25.797Z,8.70
2023-04-30T00:45:12.941Z,8.75
2023-04-30T00:48:00.700Z,8.88
2023-04-30T00:50:47.960Z,9.35
2023-04-30T00:53:36.685Z,8.80
2023-04-30T00:56:26.216Z,9.10
2023-04-30T00:59:16.623Z,8.75
2023-04-30T01:02:03.837Z,8.30
2023-04-30T01:04:51.946Z,8.10
2023-04-30T01:07:44.738Z,8.93
2023-04-30T01:10:42.867Z,8.80
2023-04-30T01:13:53.592Z,8.88
2023-04-30T01:16:48.827Z,9.40
2023-04-30T01:19:38.670Z,9.25
2023-04-30T01:22:28.698Z,9.02
2023-04-30T01:25:51.172Z,9.70
2023-04-30T01:28:39.746Z,8.73
2023-04-30T01:31:28.693Z,9.10
2023-04-30T01:34:15.923Z,10.07
2023-04-30T01:37:03.065Z,9.35
2023-04-30T01:40:10.895Z,10.55
2023-04-30T01:43:33.424Z,9.82
2023-04-30T01:46:27.534Z,9.45
2023-04-30T01:49:42.597Z,9.95
2023-04-30T01:52:42.018Z,10.13
2023-04-30T01:55:48.161Z,10.20
2023-04-30T01:58:40.203Z,10.10
2023-04-30T02:01:31.303Z,9.80
2023-04-30T02:04:20.780Z,9.73
2023-04-30T02:07:08.174Z,9.80
2023-04-30T02:09:57.551Z,9.57
2023-04-30T02:12:45.373Z,9.90
2023-04-30T02:15:33.012Z,9.35
2023-04-30T02:18:20.154Z,10.38
2023-04-30T02:21:07.327Z,9.57
2023-04-30T02:23:54.619Z,10.13
2023-04-30T02:26:41.730Z,10.80
2023-04-30T02:29:29.336Z,11.02
2023-04-30T02:32:16.790Z,10.63
2023-04-30T02:35:05.743Z,11.10
2023-04-30T02:37:52.866Z,10.40
2023-04-30T02:40:44.026Z,10.95
2023-04-30T02:43:31.137Z,12.32
2023-04-30T02:46:21.007Z,12.63
2023-04-30T02:49:10.656Z,12.50
2023-04-30T02:51:57.813Z,11.93
2023-04-30T02:54:45.127Z,12.82
2023-04-30T02:57:32.346Z,12.70
2023-04-30T03:00:19.617Z,13.45
2023-04-30T03:03:09.507Z,13.80
2023-04-30T03:05:59.505Z,14.02
2023-04-30T03:08:47.084Z,14.27
2023-04-30T03:11:37.488Z,15.40
2023-04-30T03:14:24.829Z,13.60
2023-04-30T03:17:15.005Z,14.50
2023-04-30T03:20:02.222Z,13.95
2023-04-30T03:22:49.317Z,15.38
2023-04-30T03:25:36.500Z,13.95
2023-04-30T03:28:26.533Z,15.38
2023-04-30T03:31:18.246Z,15.57
2023-04-30T03:34:05.332Z,14.50
2023-04-30T03:36:52.503Z,15.88
2023-04-30T03:39:42.059Z,14.90
2023-04-30T03:42:29.188Z,16.13
2023-04-30T03:45:16.483Z,16.13
2023-04-30T03:48:05.814Z,15.07
2023-04-30T03:50:55.213Z,16.60
2023-04-30T03:53:42.438Z,17.08
2023-04-30T03:56:29.588Z,17.48
2023-04-30T03:59:17.107Z,16.48
2023-04-30T04:02:04.355Z,16.00
2023-04-30T04:04:52.043Z,16.73
2023-04-30T04:07:39.476Z,16.98
2023-04-30T04:10:26.718Z,17.00
2023-04-30T04:13:13.855Z,16.73
2023-04-30T04:16:01.146Z,16.45
2023-04-30T04:18:48.340Z,17.65
2023-04-30T04:21:41.535Z,16.83
2023-04-30T04:24:30.919Z,16.58
2023-04-30T04:27:18.177Z,17.15
2023-04-30T04:30:05.794Z,17.88
2023-04-30T04:32:55.206Z,17.83
2023-04-30T04:35:42.285Z,16.40
2023-04-30T04:38:29.690Z,16.85
2023-04-30T04:41:16.856Z,16.45
2023-04-30T04:44:06.466Z,16.35
2023-04-30T04:46:56.912Z,15.23
2023-04-30T04:49:44.232Z,16.05
2023-04-30T04:52:31.422Z,16.45
2023-04-30T04:55:21.527Z,15.52
2023-04-30T04:58:08.649Z,15.43
2023-04-30T05:00:55.874Z,16.20
2023-04-30T05:03:43.160Z,16.60
2023-04-30T05:06:30.964Z,16.90
2023-04-30T05:09:20.351Z,15.73
2023-04-30T05:12:09.848Z,15.05
2023-04-30T05:14:56.999Z,15.20
2023-04-30T05:17:44.216Z,15.77
2023-04-30T05:20:31.352Z,14.75
2023-04-30T05:23:18.551Z,14.57
2023-04-30T05:26:05.991Z,14.32
2023-04-30T05:28:53.340Z,14.13
2023-04-30T05:31:40.642Z,13.45
2023-04-30T05:34:28.012Z,14.88
2023-04-30T05:37:17.609Z,14.85
2023-04-30T05:40:06.352Z,13.27
2023-04-30T05:42:53.829Z,13.48
2023-04-30T05:45:41.071Z,14.30
2023-04-30T05:48:28.234Z,13.20
2023-04-30T05:51:17.590Z,13.93
2023-04-30T05:54:04.767Z,13.35
2023-04-30T05:56:54.349Z,13.05
2023-04-30T05:59:41.513Z,13.63
2023-04-30T06:02:28.732Z,12.85
2023-04-30T06:05:16.506Z,13.60
2023-04-30T06:08:03.834Z,12.95
2023-04-30T06:10:51.310Z,12.07
2023-04-30T06:13:41.203Z,12.82
2023-04-30T06:16:29.427Z,12.70
2023-04-30T06:19:16.661Z,12.82
2023-04-30T06:22:06.299Z,12.63
2023-04-30T06:24:57.828Z,13.30
2023-04-30T06:27:45.409Z,11.82
2023-04-30T06:30:32.660Z,12.68
2023-04-30T06:33:19.944Z,12.10
2023-04-30T06:36:07.184Z,12.23
2023-04-30T06:38:54.854Z,12.88
2023-04-30T06:41:44.758Z,12.18
2023-04-30T06:44:36.790Z,11.35
2023-04-30T06:47:26.208Z,11.52
2023-04-30T06:50:15.654Z,11.48
2023-04-30T06:53:02.958Z,11.45
2023-04-30T06:55:54.557Z,11.27
2023-04-30T06:58:42.483Z,11.40
2023-04-30T07:01:29.773Z,11.35
2023-04-30T07:04:20.074Z,11.35
2023-04-30T07:07:07.831Z,11.55
2023-04-30T07:09:55.227Z,10.90
2023-04-30T07:12:42.998Z,10.63
2023-04-30T07:15:30.251Z,9.70
2023-04-30T07:18:17.536Z,9.52
2023-04-30T07:21:04.792Z,10.20
2023-04-30T07:23:52.048Z,8.85
2023-04-30T07:26:39.160Z,9.02
2023-04-30T07:29:27.152Z,9.65
2023-04-30T07:32:16.555Z,9.98
2023-04-30T07:35:04.671Z,8.57
2023-04-30T07:37:51.780Z,8.63
2023-04-30T07:40:41.430Z,8.43
2023-04-30T07:43:33.187Z,8.90
2023-04-30T07:46:20.486Z,7.40
2023-04-30T07:49:09.810Z,7.20
2023-04-30T07:52:01.043Z,7.22
2023-04-30T07:54:49.404Z,8.40
2023-04-30T07:57:36.571Z,7.32
2023-04-30T08:00:26.490Z,6.80
2023-04-30T08:03:13.909Z,7.22
2023-04-30T08:06:01.271Z,6.25
2023-04-30T08:08:48.889Z,6.35
2023-04-30T08:11:43.248Z,5.88
2023-04-30T08:14:31.163Z,6.32
2023-04-30T08:17:18.362Z,6.30
2023-04-30T08:20:06.903Z,6.45
2023-04-30T08:22:54.176Z,6.43
2023-04-30T08:25:41.506Z,6.05
2023-04-30T08:28:28.836Z,6.32
2023-04-30T08:31:18.719Z,6.55
2023-04-30T08:34:06.230Z,6.00
2023-04-30T08:36:53.517Z,8.40
2023-04-30T08:39:40.895Z,8.00
2023-04-30T08:42:43.713Z,5.32
2023-04-30T08:48:24.113Z,5.40
2023-04-30T08:51:11.974Z,5.85
2023-04-30T08:53:59.279Z,5.20
2023-04-30T08:56:46.655Z,5.82
2023-04-30T08:59:34.287Z,5.40
2023-04-30T09:02:21.975Z,6.43
2023-04-30T09:05:12.351Z,5.57
2023-04-30T09:08:03.622Z,5.85
2023-04-30T09:10:51.548Z,5.40
2023-04-30T09:13:42.103Z,5.18
2023-04-30T09:16:44.717Z,5.07
2023-04-30T09:19:32.259Z,6.20
2023-04-30T09:22:24.067Z,4.63
2023-04-30T09:25:11.800Z,4.32
2023-04-30T09:28:10.048Z,3.60
2023-04-30T09:30:57.883Z,3.20
2023-04-30T09:33:48.128Z,4.18
2023-04-30T09:36:37.464Z,4.05
2023-04-30T09:39:24.800Z,4.47
2023-04-30T09:42:14.196Z,4.45
2023-04-30T09:45:01.501Z,4.63
2023-04-30T09:47:48.824Z,4.68
2023-04-30T09:50:41.867Z,4.38
2023-04-30T09:53:31.013Z,4.68
2023-04-30T09:56:24.492Z,4.38
2023-04-30T09:59:13.754Z,3.80
2023-04-30T10:02:05.372Z,4.00
2023-04-30T10:04:58.302Z,3.17
2023-04-30T10:07:46.431Z,4.57
2023-04-30T10:10:36.782Z,3.92
2023-04-30T10:13:26.860Z,3.28
2023-04-30T10:16:47.902Z,3.65
2023-04-30T10:19:39.810Z,4.25
2023-04-30T10:22:28.501Z,3.85
2023-04-30T10:25:17.296Z,3.83
2023-04-30T10:28:08.973Z,3.80
2023-04-30T10:30:56.535Z,3.60
2023-04-30T10:33:50.507Z,3.70
2023-04-30T10:36:42.522Z,4.10
2023-04-30T10:39:32.839Z,3.45
2023-04-30T10:42:22.372Z,4.20
2023-04-30T10:45:12.819Z,4.18
2023-04-30T10:48:03.247Z,3.63
2023-04-30T10:50:54.721Z,3.97
2023-04-30T10:53:45.725Z,4.50
2023-04-30T10:56:33.635Z,4.03
2023-04-30T10:59:20.723Z,4.45
2023-04-30T11:02:11.480Z,3.50
2023-04-30T11:05:09.700Z,3.47
2023-04-30T11:07:57.926Z,3.45
2023-04-30T11:11:05.163Z,3.35
2023-04-30T11:14:01.803Z,3.40
2023-04-30T11:16:50.802Z,3.25
2023-04-30T11:19:46.759Z,3.95
2023-04-30T11:22:37.018Z,3.50
2023-04-30T11:25:24.212Z,3.08
2023-04-30T11:28:26.178Z,2.88
2023-04-30T11:31:15.512Z,2.93
2023-04-30T11:34:03.942Z,3.30
2023-04-30T11:36:51.497Z,3.13
2023-04-30T11:39:39.682Z,3.53
2023-04-30T11:42:26.997Z,3.17
2023-04-30T11:45:17.856Z,3.38
2023-04-30T11:48:05.618Z,3.20
2023-04-30T11:50:52.914Z,2.60
2023-04-30T11:53:40.121Z,2.80
2023-04-30T11:56:30.047Z,3.35
2023-04-30T11:59:19.971Z,3.00
2023-04-30T12:02:07.724Z,2.83
2023-04-30T12:04:55.283Z,3.20
2023-04-30T12:07:54.985Z,2.97
2023-04-30T12:10:42.135Z,3.10
2023-04-30T12:13:32.018Z,2.97
2023-04-30T12:16:21.973Z,2.80
2023-04-30T12:19:09.643Z,2.63
2023-04-30T12:21:59.228Z,3.13
2023-04-30T12:24:47.924Z,3.03
2023-04-30T12:27:36.407Z,2.90
2023-04-30T12:30:27.195Z,3.40
2023-04-30T12:33:18.772Z,3.40
2023-04-30T12:36:11.324Z,3.63
2023-04-30T12:42:01.149Z,2.42
2023-04-30T12:44:50.759Z,2.72
2023-04-30T12:47:45.737Z,3.00
2023-04-30T12:50:35.419Z,2.65
2023-04-30T12:53:24.349Z,2.55
2023-04-30T12:56:18.064Z,3.05
2023-04-30T12:59:16.754Z,3.15
2023-04-30T13:02:12.895Z,3.10
2023-04-30T13:05:00.271Z,3.10
2023-04-30T13:07:48.672Z,2.60
2023-04-30T13:10:35.918Z,2.53
2023-04-30T13:13:23.112Z,2.15
2023-04-30T13:16:10.386Z,2.15
2023-04-30T13:18:57.562Z,2.30
2023-04-30T13:21:44.939Z,2.53
2023-04-30T13:24:32.073Z,2.25
2023-04-30T13:27:19.319Z,2.90
2023-04-30T13:30:07.243Z,2.80
2023-04-30T13:32:54.584Z,2.83
2023-04-30T13:35:41.956Z,2.67
2023-04-30T13:38:29.113Z,2.85
2023-04-30T13:41:16.423Z,3.10
2023-04-30T13:44:05.849Z,5.93
2023-04-30T13:46:53.225Z,4.13
2023-04-30T13:49:40.704Z,3.10
2023-04-30T13:52:28.206Z,3.00
2023-04-30T13:55:15.491Z,2.92
2023-04-30T13:58:04.272Z,2.58
2023-04-30T14:00:51.670Z,3.22
2023-04-30T14:03:39.213Z,2.80
2023-04-30T14:06:29.654Z,2.60
2023-04-30T14:09:18.252Z,2.55
2023-04-30T14:12:05.709Z,3.20
2023-04-30T14:14:55.914Z,2.53
2023-04-30T14:17:43.409Z,2.70
2023-04-30T14:20:32.935Z,3.08
2023-04-30T14:23:20.081Z,3.05
2023-04-30T14:26:07.604Z,2.35
2023-04-30T14:28:56.984Z,2.92
2023-04-30T14:31:44.968Z,2.30
2023-04-30T14:34:32.346Z,2.63
2023-04-30T14:37:20.157Z,2.80
2023-04-30T14:40:08.309Z,2.45
2023-04-30T14:42:55.448Z,2.28
2023-04-30T14:45:45.859Z,2.80
2023-04-30T14:48:33.602Z,2.30
2023-04-30T14:51:23.117Z,2.35
2023-04-30T14:54:12.824Z,2.40
2023-04-30T14:57:00.140Z,2.47
2023-04-30T14:59:47.725Z,2.67
2023-04-30T15:02:37.145Z,2.95
2023-04-30T15:05:27.544Z,3.10
2023-04-30T15:08:17.384Z,2.88
2023-04-30T15:11:09.567Z,5.15
2023-04-30T15:13:59.642Z,2.25
2023-04-30T15:16:49.112Z,2.53
2023-04-30T15:19:36.357Z,2.20
2023-04-30T15:22:24.178Z,2.20
2023-04-30T15:25:14.850Z,2.80
2023-04-30T15:28:02.059Z,2.47
2023-04-30T15:30:52.786Z,2.97
2023-04-30T15:33:43.541Z,2.40
2023-04-30T15:36:32.461Z,2.30
2023-04-30T15:39:19.722Z,2.60
2023-04-30T15:42:07.055Z,3.13
2023-04-30T15:44:55.534Z,2.40
2023-04-30T15:47:49.724Z,2.70
2023-04-30T15:50:41.464Z,2.45
2023-04-30T15:53:30.837Z,2.33
2023-04-30T15:56:19.873Z,2.92
2023-04-30T15:59:07.372Z,2.65
2023-04-30T16:01:55.952Z,3.05
2023-04-30T16:04:44.538Z,2.70
2023-04-30T16:07:32.480Z,2.55
2023-04-30T16:10:20.612Z,2.88
2023-04-30T16:13:08.056Z,2.90
2023-04-30T16:15:55.537Z,3.38
2023-04-30T16:18:42.819Z,2.45
2023-04-30T16:21:34.590Z,3.30
2023-04-30T16:24:23.229Z,2.63
2023-04-30T16:27:10.786Z,3.10
2023-04-30T16:29:58.264Z,3.63
2023-04-30T16:32:46.080Z,3.10
2023-04-30T16:35:33.614Z,3.22
2023-04-30T16:38:22.179Z,2.70
2023-04-30T16:41:09.561Z,3.20
2023-04-30T16:43:56.951Z,3.42
2023-04-30T16:46:49.301Z,3.38
2023-04-30T16:49:39.688Z,5.60
2023-04-30T16:52:28.430Z,12.23
2023-04-30T16:55:15.921Z,3.47
2023-04-30T16:58:08.576Z,4.93
2023-04-30T17:03:50.790Z,2.95
2023-04-30T17:06:41.140Z,3.17
2023-04-30T17:09:30.665Z,3.40
2023-04-30T17:12:18.015Z,3.28
2023-04-30T17:15:05.793Z,3.30
2023-04-30T17:17:53.239Z,2.92
2023-04-30T17:20:42.535Z,3.25
2023-04-30T17:23:34.847Z,3.80
2023-04-30T17:26:23.863Z,3.50
2023-04-30T17:29:11.037Z,3.25
2023-04-30T17:32:02.212Z,3.13
2023-04-30T17:34:51.756Z,3.30
2023-04-30T17:37:38.904Z,3.10
2023-04-30T17:40:28.796Z,2.97
2023-04-30T17:43:17.357Z,3.38
2023-04-30T17:46:06.990Z,3.08
2023-04-30T17:48:54.248Z,3.50
2023-04-30T17:51:43.872Z,3.38
2023-04-30T17:54:31.455Z,3.28
2023-04-30T17:57:20.810Z,2.80
2023-04-30T18:00:08.645Z,3.17
2023-04-30T18:02:56.089Z,3.13
2023-04-30T18:05:43.501Z,3.10
2023-04-30T18:08:30.947Z,3.17
2023-04-30T18:11:18.206Z,3.08
2023-04-30T18:14:08.102Z,3.75
2023-04-30T18:16:58.197Z,3.38
2023-04-30T18:19:48.642Z,3.35
2023-04-30T18:22:42.427Z,3.60
2023-04-30T18:25:29.643Z,3.30
2023-04-30T18:28:16.896Z,4.00
2023-04-30T18:31:06.155Z,3.47
2023-04-30T18:33:53.413Z,3.53
2023-04-30T18:36:43.249Z,3.83
2023-04-30T18:39:31.733Z,3.55
2023-04-30T18:42:19.003Z,3.45
2023-04-30T18:45:09.045Z,3.85
2023-04-30T18:47:59.793Z,3.70
2023-04-30T18:50:47.496Z,3.88
2023-04-30T18:53:36.431Z,3.53
2023-04-30T18:56:24.227Z,4.20
2023-04-30T18:59:11.706Z,3.83
2023-04-30T19:01:59.409Z,3.72
2023-04-30T19:04:46.725Z,3.90
2023-04-30T19:07:34.387Z,4.00
2023-04-30T19:10:23.814Z,4.10
2023-04-30T19:13:11.493Z,4.18
2023-04-30T19:15:59.980Z,4.40
2023-04-30T19:18:47.293Z,4.53
2023-04-30T19:21:36.497Z,3.60
2023-04-30T19:24:26.392Z,4.07
2023-04-30T19:27:13.854Z,4.25
2023-04-30T19:30:01.387Z,3.67
2023-04-30T19:32:48.808Z,4.03
2023-04-30T19:35:36.363Z,4.72
2023-04-30T19:38:24.157Z,4.28
2023-04-30T19:41:14.299Z,3.92
2023-04-30T19:44:06.449Z,4.45
2023-04-30T19:46:56.640Z,4.28
2023-04-30T19:49:44.776Z,4.15
2023-04-30T19:52:32.250Z,4.32
2023-04-30T19:55:19.825Z,4.25
2023-04-30T19:58:07.732Z,4.43
2023-04-30T20:00:57.994Z,4.65
2023-04-30T20:03:45.839Z,4.35
2023-04-30T20:06:39.062Z,4.57
2023-04-30T20:09:26.616Z,4.90
2023-04-30T20:12:16.927Z,4.45
2023-04-30T20:15:04.871Z,4.28
2023-04-30T20:17:53.103Z,3.80
2023-04-30T20:20:43.356Z,4.20
2023-04-30T20:23:30.589Z,4.35
2023-04-30T20:26:18.587Z,4.78
2023-04-30T20:29:08.115Z,4.82
2023-04-30T20:31:58.389Z,4.50
2023-04-30T20:34:48.844Z,4.47
2023-04-30T20:37:38.650Z,4.45
2023-04-30T20:40:27.013Z,5.00
2023-04-30T20:43:16.869Z,5.32
2023-04-30T20:46:04.389Z,4.75
2023-04-30T20:48:54.834Z,5.18
2023-04-30T20:51:44.192Z,5.13
2023-04-30T20:54:31.648Z,4.65
2023-04-30T20:57:19.030Z,4.68
2023-04-30T21:00:10.001Z,4.80
2023-04-30T21:03:00.203Z,5.07
2023-04-30T21:05:47.726Z,5.00
2023-04-30T21:08:35.281Z,4.35
2023-04-30T21:11:22.986Z,6.40
2023-04-30T21:14:10.307Z,6.95
2023-04-30T21:16:57.914Z,7.00
2023-04-30T21:19:45.491Z,7.22
2023-04-30T21:22:33.148Z,6.88
2023-04-30T21:25:23.162Z,7.32
2023-04-30T21:28:12.493Z,6.75
2023-04-30T21:31:07.513Z,7.20
2023-04-30T21:33:55.014Z,7.40
2023-04-30T21:36:45.636Z,8.52
2023-04-30T21:39:33.011Z,8.15
2023-04-30T21:42:20.539Z,8.48
2023-04-30T21:45:10.127Z,8.90
2023-04-30T21:47:57.705Z,7.93
2023-04-30T21:53:32.657Z,7.75
2023-04-30T21:56:22.475Z,6.20
2023-04-30T21:59:09.851Z,5.60
2023-04-30T22:01:57.711Z,5.50
2023-04-30T22:04:45.084Z,4.70
2023-04-30T22:07:32.392Z,5.25
2023-04-30T22:10:22.494Z,5.32
2023-04-30T22:13:09.664Z,5.30
2023-04-30T22:15:57.333Z,5.43
2023-04-30T22:18:47.437Z,5.05
2023-04-30T22:21:36.881Z,5.20
2023-04-30T22:24:26.219Z,5.13
2023-04-30T22:27:13.873Z,4.95
2023-04-30T22:30:01.234Z,5.60
2023-04-30T22:32:48.503Z,6.07
2023-04-30T22:35:38.608Z,5.50
2023-04-30T22:38:26.191Z,5.25
2023-04-30T22:41:14.987Z,5.20
2023-04-30T22:44:02.403Z,5.53
2023-04-30T22:46:50.422Z,5.97
2023-04-30T22:49:38.867Z,6.20
2023-04-30T22:52:29.609Z,5.50
2023-04-30T22:55:17.079Z,5.72
2023-04-30T22:58:04.342Z,7.07
2023-04-30T23:00:51.638Z,7.53
2023-04-30T23:03:38.993Z,8.73
2023-04-30T23:06:30.049Z,8.55
2023-04-30T23:09:17.660Z,8.00
2023-04-30T23:12:05.627Z,8.70
2023-04-30T23:14:52.824Z,8.00
2023-04-30T23:17:42.202Z,8.48
2023-04-30T23:20:29.451Z,9.38
2023-04-30T23:23:16.764Z,9.20
2023-04-30T23:26:04.060Z,9.88
2023-04-30T23:28:51.870Z,9.07
2023-04-30T23:31:41.907Z,9.20
2023-04-30T23:34:29.027Z,9.00
2023-04-30T23:37:16.820Z,8.82
2023-04-30T23:40:07.546Z,8.48
2023-04-30T23:42:54.842Z,9.07
2023-04-30T23:45:42.662Z,8.90
2023-04-30T23:48:30.531Z,9.57
2023-04-30T23:51:19.293Z,9.10
2023-04-30T23:54:08.806Z,8.05
2023-04-30T23:56:55.994Z,8.40
2023-04-30T23:59:43.376Z,8.10
